TimeEDT,TemperatureF,Dew PointF,Humidity,Sea Level PressureIn,VisibilityMPH,Wind Direction,Wind SpeedMPH,Gust SpeedMPH,PrecipitationIn,Events,Conditions,WindDirDegrees,DateUTC
12:15 AM,73.9,73.8,99,29.84,10.0,Calm,Calm,-,N/A,,Overcast,0,2013-08-14 04:15:00
12:35 AM,73.8,73.6,99,29.84,7.0,Calm,Calm,-,N/A,,Scattered Clouds,0,2013-08-14 04:35:00
12:55 AM,73.8,73.8,100,29.84,10.0,Calm,Calm,-,N/A,,Scattered Clouds,0,2013-08-14 04:55:00
1:15 AM,73.8,73.8,100,29.84,7.0,Calm,Calm,-,N/A,,Mostly Cloudy,0,2013-08-14 05:15:00
1:35 AM,73.9,73.9,100,29.84,7.0,Calm,Calm,-,N/A,,Overcast,0,2013-08-14 05:35:00
1:55 AM,74.3,74.3,100,29.84,7.0,Calm,Calm,-,N/A,,Overcast,0,2013-08-14 05:55:00
2:15 AM,74.3,74.3,100,29.84,7.0,Calm,Calm,-,N/A,,Overcast,0,2013-08-14 06:15:00
2:35 AM,73.9,73.8,99,29.84,7.0,Calm,Calm,-,N/A,,Mostly Cloudy,0,2013-08-14 06:35:00
2:55 AM,74.3,73.9,99,29.84,7.0,Calm,Calm,-,N/A,,Overcast,0,2013-08-14 06:55:00
3:15 AM,74.3,73.9,99,29.84,10.0,Calm,Calm,-,N/A,,Overcast,0,2013-08-14 07:15:00
3:35 AM,73.9,73.8,99,29.84,10.0,Calm,Calm,-,N/A,,Mostly Cloudy,0,2013-08-14 07:35:00
3:55 AM,73.8,73.6,99,29.84,10.0,Calm,Calm,-,N/A,,Mostly Cloudy,0,2013-08-14 07:55:00
4:15 AM,73.6,73.4,99,29.84,10.0,Calm,Calm,-,N/A,,Mostly Cloudy,0,2013-08-14 08:15:00
4:35 AM,73.4,73.0,99,29.84,10.0,Calm,Calm,-,N/A,,Mostly Cloudy,0,2013-08-14 08:35:00
4:55 AM,73.6,73.2,99,29.85,10.0,Calm,Calm,-,N/A,,Overcast,0,2013-08-14 08:55:00
5:15 AM,73.4,72.7,98,29.85,10.0,Calm,Calm,-,N/A,,Mostly Cloudy,0,2013-08-14 09:15:00
5:35 AM,73.4,72.0,95,29.86,10.0,Calm,Calm,-,N/A,,Overcast,0,2013-08-14 09:35:00
5:55 AM,72.9,71.2,95,29.87,10.0,NNW,3.5,-,N/A,,Mostly Cloudy,330,2013-08-14 09:55:00
6:15 AM,72.1,70.3,94,29.88,10.0,Calm,Calm,-,N/A,,Clear,0,2013-08-14 10:15:00
6:35 AM,71.8,70.0,94,29.89,10.0,Calm,Calm,-,N/A,,Scattered Clouds,0,2013-08-14 10:35:00
6:55 AM,71.6,69.8,94,29.90,10.0,Calm,Calm,-,N/A,,Scattered Clouds,0,2013-08-14 10:55:00
7:15 AM,71.6,69.8,94,29.91,10.0,Calm,Calm,-,N/A,,Scattered Clouds,0,2013-08-14 11:15:00
7:35 AM,72.3,70.0,92,29.92,10.0,Calm,Calm,-,N/A,,Unknown,0,2013-08-14 11:35:00
7:55 AM,72.7,69.8,91,29.93,10.0,Calm,Calm,-,N/A,,Overcast,0,2013-08-14 11:55:00
8:15 AM,73.4,68.5,85,29.94,10.0,Calm,Calm,-,N/A,,Overcast,0,2013-08-14 12:15:00
8:35 AM,73.6,68.2,83,29.94,10.0,NNW,4.6,-,N/A,,Overcast,340,2013-08-14 12:35:00
8:55 AM,73.9,68.7,84,29.94,10.0,North,4.6,-,N/A,,Overcast,350,2013-08-14 12:55:00
9:15 AM,75.2,67.1,76,29.94,10.0,North,5.8,-,N/A,,Scattered Clouds,350,2013-08-14 13:15:00
9:35 AM,75.6,66.2,73,29.95,10.0,North,6.9,-,N/A,,Clear,10,2013-08-14 13:35:00
9:55 AM,75.6,64.6,69,29.96,10.0,NNE,9.2,-,N/A,,Scattered Clouds,20,2013-08-14 13:55:00
10:15 AM,76.1,64.9,68,29.97,10.0,NNE,5.8,-,N/A,,Mostly Cloudy,20,2013-08-14 14:15:00
10:35 AM,76.1,65.5,70,29.98,10.0,NNE,4.6,-,N/A,,Scattered Clouds,30,2013-08-14 14:35:00
10:55 AM,75.9,65.8,71,29.98,10.0,NNE,5.8,-,N/A,,Scattered Clouds,20,2013-08-14 14:55:00
11:15 AM,75.7,64.9,69,29.99,10.0,NNE,4.6,-,N/A,,Scattered Clouds,20,2013-08-14 15:15:00
11:35 AM,76.1,65.3,69,30.00,10.0,NNE,4.6,-,N/A,,Clear,30,2013-08-14 15:35:00
11:55 AM,77.0,65.7,68,29.99,10.0,NE,8.1,-,N/A,,Scattered Clouds,40,2013-08-14 15:55:00
12:15 PM,77.0,65.3,67,29.99,10.0,ENE,6.9,-,N/A,,Overcast,70,2013-08-14 16:15:00
12:35 PM,77.0,64.8,66,30.00,5.0,East,6.9,-,N/A,,Haze,90,2013-08-14 16:35:00
12:55 PM,77.2,64.4,65,30.00,5.0,East,8.1,-,N/A,,Haze,80,2013-08-14 16:55:00
1:15 PM,77.7,64.2,63,30.00,7.0,ENE,8.1,-,N/A,,Overcast,70,2013-08-14 17:15:00
1:35 PM,77.0,63.9,64,29.99,10.0,ENE,6.9,-,N/A,,Overcast,70,2013-08-14 17:35:00
1:55 PM,78.3,64.4,62,29.99,10.0,ENE,8.1,-,N/A,,Scattered Clouds,60,2013-08-14 17:55:00
2:15 PM,77.0,63.5,63,29.99,10.0,ENE,9.2,-,N/A,,Mostly Cloudy,60,2013-08-14 18:15:00
2:35 PM,77.4,63.3,62,29.99,10.0,NNE,8.1,-,N/A,,Overcast,30,2013-08-14 18:35:00
2:55 PM,77.4,62.6,60,29.99,10.0,NE,9.2,-,N/A,,Overcast,50,2013-08-14 18:55:00
3:55 PM,75.6,62.4,64,30.01,10.0,NNE,4.6,-,N/A,,Mostly Cloudy,30,2013-08-14 19:55:00
4:15 PM,75.2,62.2,64,30.01,10.0,NE,6.9,-,N/A,,Overcast,40,2013-08-14 20:15:00
4:35 PM,74.7,61.9,64,30.00,10.0,NNE,5.8,-,N/A,,Overcast,30,2013-08-14 20:35:00
4:55 PM,74.8,61.9,64,30.00,10.0,NE,4.6,-,N/A,,Overcast,40,2013-08-14 20:55:00
5:15 PM,76.1,61.0,59,30.00,10.0,NE,6.9,-,N/A,,Mostly Cloudy,40,2013-08-14 21:15:00
5:35 PM,75.6,60.6,60,30.01,10.0,NE,6.9,-,N/A,,Mostly Cloudy,50,2013-08-14 21:35:00
5:55 PM,74.8,61.0,62,30.00,10.0,NE,5.8,-,N/A,,Overcast,50,2013-08-14 21:55:00
6:15 PM,74.7,60.8,62,30.02,10.0,ENE,5.8,-,N/A,,Mostly Cloudy,60,2013-08-14 22:15:00
6:35 PM,74.3,61.2,63,30.02,10.0,NE,5.8,-,N/A,,Overcast,50,2013-08-14 22:35:00
6:55 PM,73.4,61.5,66,30.01,10.0,NNE,6.9,-,N/A,,Overcast,30,2013-08-14 22:55:00
7:15 PM,72.9,60.8,66,30.01,10.0,NNE,5.8,-,N/A,,Scattered Clouds,30,2013-08-14 23:15:00
7:35 PM,72.5,61.3,68,30.02,10.0,NE,3.5,-,N/A,,Clear,50,2013-08-14 23:35:00
7:55 PM,72.0,61.5,70,30.04,10.0,NE,3.5,-,N/A,,Clear,50,2013-08-14 23:55:00
8:15 PM,71.1,61.5,72,30.04,10.0,NNE,3.5,-,N/A,,Mostly Cloudy,30,2013-08-15 00:15:00
8:35 PM,70.7,61.3,72,30.05,10.0,NE,3.5,-,N/A,,Scattered Clouds,50,2013-08-15 00:35:00
8:55 PM,70.3,61.7,74,30.05,10.0,NE,3.5,-,N/A,,Mostly Cloudy,50,2013-08-15 00:55:00
9:15 PM,69.1,61.7,77,30.06,10.0,NE,3.5,-,N/A,,Mostly Cloudy,40,2013-08-15 01:15:00
9:35 PM,68.5,61.7,79,30.08,10.0,Calm,Calm,-,N/A,,Mostly Cloudy,0,2013-08-15 01:35:00
9:55 PM,68.0,61.9,81,30.08,10.0,Calm,Calm,-,N/A,,Clear,0,2013-08-15 01:55:00
10:15 PM,67.3,61.9,83,30.08,10.0,NE,3.5,-,N/A,,Clear,40,2013-08-15 02:15:00
10:35 PM,67.1,61.9,83,30.09,10.0,Calm,Calm,-,N/A,,Clear,0,2013-08-15 02:35:00
10:55 PM,66.4,62.2,86,30.08,10.0,Calm,Calm,-,N/A,,Clear,0,2013-08-15 02:55:00
11:15 PM,66.2,63.3,90,30.09,10.0,Calm,Calm,-,N/A,,Clear,0,2013-08-15 03:15:00
11:35 PM,65.5,63.1,92,30.09,10.0,Calm,Calm,-,N/A,,Clear,0,2013-08-15 03:35:00
11:55 PM,65.8,61.2,85,30.08,10.0,NNE,3.5,-,N/A,,Clear,20,2013-08-15 03:55:00